sensor_id;sensor_type;location;lat;lon;timestamp;P1;durP1;ratioP1;P2;durP2;ratioP2
16314;SDS011;8266;52.150;4.768;2022-09-01T00:01:24;1.20;;;0.60;;
16314;SDS011;8266;52.150;4.768;2022-09-01T00:03:55;1.52;;;0.98;;
16314;SDS011;8266;52.150;4.768;2022-09-01T00:06:27;1.98;;;0.90;;
16314;SDS011;8266;52.150;4.768;2022-09-01T00:08:57;0.88;;;0.60;;
16314;SDS011;8266;52.150;4.768;2022-09-01T00:11:28;1.20;;;0.60;;
16314;SDS011;8266;52.150;4.768;2022-09-01T00:13:55;0.90;;;0.63;;
16314;SDS011;8266;52.150;4.768;2022-09-01T00:16:23;0.88;;;0.60;;
16314;SDS011;8266;52.150;4.768;2022-09-01T00:18:50;0.98;;;0.70;;
16314;SDS011;8266;52.150;4.768;2022-09-01T00:21:20;1.25;;;0.90;;
16314;SDS011;8266;52.150;4.768;2022-09-01T00:23:49;1.38;;;0.57;;
16314;SDS011;8266;52.150;4.768;2022-09-01T00:26:17;1.23;;;0.82;;
16314;SDS011;8266;52.150;4.768;2022-09-01T00:28:44;1.10;;;0.73;;
16314;SDS011;8266;52.150;4.768;2022-09-01T00:31:11;1.27;;;0.85;;
16314;SDS011;8266;52.150;4.768;2022-09-01T00:33:40;1.50;;;0.77;;
16314;SDS011;8266;52.150;4.768;2022-09-01T00:36:08;3.08;;;0.90;;
16314;SDS011;8266;52.150;4.768;2022-09-01T00:38:35;1.13;;;0.80;;
16314;SDS011;8266;52.150;4.768;2022-09-01T00:41:04;1.00;;;0.80;;
16314;SDS011;8266;52.150;4.768;2022-09-01T00:43:38;0.80;;;0.75;;
16314;SDS011;8266;52.150;4.768;2022-09-01T00:46:09;2.20;;;1.10;;
16314;SDS011;8266;52.150;4.768;2022-09-01T00:48:38;2.05;;;0.82;;
16314;SDS011;8266;52.150;4.768;2022-09-01T00:51:06;0.80;;;0.75;;
16314;SDS011;8266;52.150;4.768;2022-09-01T00:53:34;2.08;;;0.60;;
16314;SDS011;8266;52.150;4.768;2022-09-01T00:56:02;2.00;;;0.85;;
16314;SDS011;8266;52.150;4.768;2022-09-01T00:58:30;0.60;;;0.60;;
16314;SDS011;8266;52.150;4.768;2022-09-01T01:01:01;1.23;;;0.60;;
16314;SDS011;8266;52.150;4.768;2022-09-01T01:03:29;1.85;;;0.73;;
16314;SDS011;8266;52.150;4.768;2022-09-01T01:05:56;1.40;;;0.98;;
16314;SDS011;8266;52.150;4.768;2022-09-01T01:08:27;1.85;;;1.00;;
16314;SDS011;8266;52.150;4.768;2022-09-01T01:10:58;2.33;;;0.70;;
16314;SDS011;8266;52.150;4.768;2022-09-01T01:13:26;0.98;;;0.80;;
16314;SDS011;8266;52.150;4.768;2022-09-01T01:15:56;0.70;;;0.70;;
16314;SDS011;8266;52.150;4.768;2022-09-01T01:18:26;0.70;;;0.63;;
16314;SDS011;8266;52.150;4.768;2022-09-01T01:20:56;2.42;;;1.02;;
16314;SDS011;8266;52.150;4.768;2022-09-01T01:23:47;2.22;;;0.73;;
16314;SDS011;8266;52.150;4.768;2022-09-01T01:26:22;1.08;;;0.88;;
16314;SDS011;8266;52.150;4.768;2022-09-01T01:28:49;1.08;;;0.82;;
16314;SDS011;8266;52.150;4.768;2022-09-01T01:31:17;2.63;;;1.08;;
16314;SDS011;8266;52.150;4.768;2022-09-01T01:33:48;3.30;;;1.05;;
16314;SDS011;8266;52.150;4.768;2022-09-01T01:36:18;0.98;;;0.88;;
16314;SDS011;8266;52.150;4.768;2022-09-01T01:38:58;2.85;;;1.05;;
16314;SDS011;8266;52.150;4.768;2022-09-01T01:41:29;1.25;;;0.80;;
16314;SDS011;8266;52.150;4.768;2022-09-01T01:43:57;3.45;;;1.40;;
16314;SDS011;8266;52.150;4.768;2022-09-01T01:46:28;1.02;;;0.93;;
16314;SDS011;8266;52.150;4.768;2022-09-01T01:48:58;1.08;;;0.70;;
16314;SDS011;8266;52.150;4.768;2022-09-01T01:51:27;1.92;;;1.10;;
16314;SDS011;8266;52.150;4.768;2022-09-01T01:53:58;1.60;;;0.80;;
16314;SDS011;8266;52.150;4.768;2022-09-01T01:56:31;2.80;;;1.00;;
16314;SDS011;8266;52.150;4.768;2022-09-01T01:59:03;1.80;;;0.88;;
16314;SDS011;8266;52.150;4.768;2022-09-01T02:01:31;1.73;;;0.80;;
16314;SDS011;8266;52.150;4.768;2022-09-01T02:03:59;1.70;;;0.95;;
16314;SDS011;8266;52.150;4.768;2022-09-01T02:06:31;1.85;;;1.05;;
16314;SDS011;8266;52.150;4.768;2022-09-01T02:08:59;3.33;;;1.00;;
16314;SDS011;8266;52.150;4.768;2022-09-01T02:11:27;1.02;;;0.68;;
16314;SDS011;8266;52.150;4.768;2022-09-01T02:13:58;3.53;;;1.02;;
16314;SDS011;8266;52.150;4.768;2022-09-01T02:16:26;2.78;;;0.93;;
16314;SDS011;8266;52.150;4.768;2022-09-01T02:18:56;1.15;;;0.90;;
16314;SDS011;8266;52.150;4.768;2022-09-01T02:21:24;1.20;;;0.75;;
16314;SDS011;8266;52.150;4.768;2022-09-01T02:23:53;1.70;;;0.88;;
16314;SDS011;8266;52.150;4.768;2022-09-01T02:26:25;2.83;;;0.80;;
16314;SDS011;8266;52.150;4.768;2022-09-01T02:28:55;1.10;;;0.98;;
16314;SDS011;8266;52.150;4.768;2022-09-01T02:31:30;0.80;;;0.80;;
16314;SDS011;8266;52.150;4.768;2022-09-01T02:33:59;2.13;;;0.90;;
16314;SDS011;8266;52.150;4.768;2022-09-01T02:36:28;2.15;;;1.00;;
16314;SDS011;8266;52.150;4.768;2022-09-01T02:38:59;1.23;;;0.70;;
16314;SDS011;8266;52.150;4.768;2022-09-01T02:41:28;1.85;;;0.90;;
16314;SDS011;8266;52.150;4.768;2022-09-01T02:43:58;1.35;;;0.80;;
16314;SDS011;8266;52.150;4.768;2022-09-01T02:46:28;1.73;;;0.90;;
16314;SDS011;8266;52.150;4.768;2022-09-01T02:48:56;1.50;;;0.93;;
16314;SDS011;8266;52.150;4.768;2022-09-01T02:51:24;1.35;;;0.90;;
16314;SDS011;8266;52.150;4.768;2022-09-01T02:53:51;3.33;;;0.90;;
16314;SDS011;8266;52.150;4.768;2022-09-01T02:56:19;4.53;;;0.90;;
16314;SDS011;8266;52.150;4.768;2022-09-01T02:58:52;2.58;;;1.42;;
16314;SDS011;8266;52.150;4.768;2022-09-01T03:01:20;1.83;;;0.80;;
16314;SDS011;8266;52.150;4.768;2022-09-01T03:03:51;1.30;;;0.88;;
16314;SDS011;8266;52.150;4.768;2022-09-01T03:06:19;2.00;;;1.00;;
16314;SDS011;8266;52.150;4.768;2022-09-01T03:08:48;1.50;;;0.98;;
16314;SDS011;8266;52.150;4.768;2022-09-01T03:11:17;0.90;;;0.80;;
16314;SDS011;8266;52.150;4.768;2022-09-01T03:13:44;2.00;;;0.90;;
16314;SDS011;8266;52.150;4.768;2022-09-01T03:16:11;1.52;;;1.20;;
16314;SDS011;8266;52.150;4.768;2022-09-01T03:18:39;1.00;;;0.85;;
16314;SDS011;8266;52.150;4.768;2022-09-01T03:21:08;1.25;;;0.70;;
16314;SDS011;8266;52.150;4.768;2022-09-01T03:23:42;5.07;;;1.25;;
16314;SDS011;8266;52.150;4.768;2022-09-01T03:26:10;1.55;;;1.20;;
16314;SDS011;8266;52.150;4.768;2022-09-01T03:28:37;2.30;;;1.00;;
16314;SDS011;8266;52.150;4.768;2022-09-01T03:31:05;0.80;;;0.77;;
16314;SDS011;8266;52.150;4.768;2022-09-01T03:33:32;2.42;;;1.10;;
16314;SDS011;8266;52.150;4.768;2022-09-01T03:36:00;1.83;;;1.00;;
16314;SDS011;8266;52.150;4.768;2022-09-01T03:38:29;1.98;;;1.02;;
16314;SDS011;8266;52.150;4.768;2022-09-01T03:40:57;1.00;;;0.90;;
16314;SDS011;8266;52.150;4.768;2022-09-01T03:43:26;1.10;;;0.90;;
16314;SDS011;8266;52.150;4.768;2022-09-01T03:45:55;3.72;;;1.25;;
16314;SDS011;8266;52.150;4.768;2022-09-01T03:48:24;1.48;;;1.30;;
16314;SDS011;8266;52.150;4.768;2022-09-01T03:50:53;2.13;;;1.15;;
16314;SDS011;8266;52.150;4.768;2022-09-01T03:53:21;1.25;;;1.00;;
16314;SDS011;8266;52.150;4.768;2022-09-01T03:55:52;1.52;;;0.82;;
16314;SDS011;8266;52.150;4.768;2022-09-01T03:58:20;1.15;;;1.05;;
16314;SDS011;8266;52.150;4.768;2022-09-01T04:00:48;1.55;;;1.13;;
16314;SDS011;8266;52.150;4.768;2022-09-01T04:03:19;2.47;;;1.10;;
16314;SDS011;8266;52.150;4.768;2022-09-01T04:05:48;1.35;;;0.90;;
16314;SDS011;8266;52.150;4.768;2022-09-01T04:08:17;1.15;;;0.90;;
16314;SDS011;8266;52.150;4.768;2022-09-01T04:10:46;3.33;;;0.98;;
16314;SDS011;8266;52.150;4.768;2022-09-01T04:13:16;2.50;;;0.77;;
16314;SDS011;8266;52.150;4.768;2022-09-01T04:15:45;1.75;;;1.00;;
16314;SDS011;8266;52.150;4.768;2022-09-01T04:18:14;1.30;;;1.00;;
16314;SDS011;8266;52.150;4.768;2022-09-01T04:20:45;0.95;;;0.77;;
16314;SDS011;8266;52.150;4.768;2022-09-01T04:23:16;2.20;;;1.05;;
16314;SDS011;8266;52.150;4.768;2022-09-01T04:25:50;1.45;;;1.10;;
16314;SDS011;8266;52.150;4.768;2022-09-01T04:28:23;2.63;;;1.13;;
16314;SDS011;8266;52.150;4.768;2022-09-01T04:31:01;1.98;;;1.00;;
16314;SDS011;8266;52.150;4.768;2022-09-01T04:33:30;1.25;;;0.90;;
16314;SDS011;8266;52.150;4.768;2022-09-01T04:36:03;2.30;;;1.02;;
16314;SDS011;8266;52.150;4.768;2022-09-01T04:38:46;1.60;;;0.82;;
16314;SDS011;8266;52.150;4.768;2022-09-01T04:41:14;2.45;;;1.08;;
16314;SDS011;8266;52.150;4.768;2022-09-01T04:43:43;1.33;;;0.95;;
16314;SDS011;8266;52.150;4.768;2022-09-01T04:46:11;1.63;;;0.90;;
16314;SDS011;8266;52.150;4.768;2022-09-01T04:48:39;1.35;;;1.10;;
16314;SDS011;8266;52.150;4.768;2022-09-01T04:51:07;2.65;;;1.05;;
16314;SDS011;8266;52.150;4.768;2022-09-01T04:53:36;1.10;;;1.00;;
16314;SDS011;8266;52.150;4.768;2022-09-01T04:56:04;1.25;;;0.80;;
16314;SDS011;8266;52.150;4.768;2022-09-01T04:58:33;0.75;;;0.68;;
16314;SDS011;8266;52.150;4.768;2022-09-01T05:01:11;1.42;;;1.10;;
16314;SDS011;8266;52.150;4.768;2022-09-01T05:03:39;1.98;;;1.10;;
16314;SDS011;8266;52.150;4.768;2022-09-01T05:06:11;0.85;;;0.60;;
16314;SDS011;8266;52.150;4.768;2022-09-01T05:08:38;1.90;;;1.00;;
16314;SDS011;8266;52.150;4.768;2022-09-01T05:11:06;1.65;;;1.13;;
16314;SDS011;8266;52.150;4.768;2022-09-01T05:13:33;1.95;;;1.05;;
16314;SDS011;8266;52.150;4.768;2022-09-01T05:16:05;1.83;;;1.10;;
16314;SDS011;8266;52.150;4.768;2022-09-01T05:18:36;1.85;;;0.95;;
16314;SDS011;8266;52.150;4.768;2022-09-01T05:21:05;1.00;;;0.90;;
16314;SDS011;8266;52.150;4.768;2022-09-01T05:23:33;1.27;;;0.98;;
16314;SDS011;8266;52.150;4.768;2022-09-01T05:26:01;1.00;;;0.68;;
16314;SDS011;8266;52.150;4.768;2022-09-01T05:28:38;4.55;;;1.30;;
16314;SDS011;8266;52.150;4.768;2022-09-01T05:31:09;1.80;;;1.33;;
16314;SDS011;8266;52.150;4.768;2022-09-01T05:33:36;1.73;;;0.90;;
16314;SDS011;8266;52.150;4.768;2022-09-01T05:36:09;5.13;;;1.35;;
16314;SDS011;8266;52.150;4.768;2022-09-01T05:38:37;1.90;;;0.77;;
16314;SDS011;8266;52.150;4.768;2022-09-01T05:41:06;1.27;;;1.17;;
16314;SDS011;8266;52.150;4.768;2022-09-01T05:43:35;2.20;;;0.90;;
16314;SDS011;8266;52.150;4.768;2022-09-01T05:46:05;1.75;;;0.98;;
16314;SDS011;8266;52.150;4.768;2022-09-01T05:48:34;1.70;;;1.00;;
16314;SDS011;8266;52.150;4.768;2022-09-01T05:51:04;2.25;;;0.88;;
16314;SDS011;8266;52.150;4.768;2022-09-01T05:53:32;1.48;;;0.90;;
16314;SDS011;8266;52.150;4.768;2022-09-01T05:55:59;1.80;;;1.00;;
16314;SDS011;8266;52.150;4.768;2022-09-01T05:58:31;3.30;;;0.90;;
16314;SDS011;8266;52.150;4.768;2022-09-01T06:00:59;1.65;;;0.75;;
16314;SDS011;8266;52.150;4.768;2022-09-01T06:03:28;2.75;;;0.93;;
16314;SDS011;8266;52.150;4.768;2022-09-01T06:06:00;2.25;;;0.80;;
16314;SDS011;8266;52.150;4.768;2022-09-01T06:08:29;0.80;;;0.63;;
16314;SDS011;8266;52.150;4.768;2022-09-01T06:10:56;2.13;;;1.02;;
16314;SDS011;8266;52.150;4.768;2022-09-01T06:13:23;2.40;;;0.90;;
16314;SDS011;8266;52.150;4.768;2022-09-01T06:15:50;2.80;;;0.90;;
16314;SDS011;8266;52.150;4.768;2022-09-01T06:18:19;0.70;;;0.60;;
16314;SDS011;8266;52.150;4.768;2022-09-01T06:20:48;1.48;;;0.80;;
16314;SDS011;8266;52.150;4.768;2022-09-01T06:23:16;1.98;;;1.05;;
16314;SDS011;8266;52.150;4.768;2022-09-01T06:25:44;1.88;;;1.40;;
16314;SDS011;8266;52.150;4.768;2022-09-01T06:28:12;0.93;;;0.73;;
16314;SDS011;8266;52.150;4.768;2022-09-01T06:30:40;0.93;;;0.70;;
16314;SDS011;8266;52.150;4.768;2022-09-01T06:33:08;0.57;;;0.57;;
16314;SDS011;8266;52.150;4.768;2022-09-01T06:35:37;0.82;;;0.77;;
16314;SDS011;8266;52.150;4.768;2022-09-01T06:38:07;0.75;;;0.60;;
16314;SDS011;8266;52.150;4.768;2022-09-01T06:40:36;0.70;;;0.60;;
16314;SDS011;8266;52.150;4.768;2022-09-01T06:43:05;2.28;;;0.70;;
16314;SDS011;8266;52.150;4.768;2022-09-01T06:45:33;0.75;;;0.65;;
16314;SDS011;8266;52.150;4.768;2022-09-01T06:48:06;1.45;;;0.82;;
16314;SDS011;8266;52.150;4.768;2022-09-01T06:50:33;2.50;;;1.23;;
16314;SDS011;8266;52.150;4.768;2022-09-01T06:53:01;1.77;;;0.60;;
16314;SDS011;8266;52.150;4.768;2022-09-01T06:55:34;2.22;;;0.60;;
16314;SDS011;8266;52.150;4.768;2022-09-01T06:58:01;3.00;;;0.90;;
16314;SDS011;8266;52.150;4.768;2022-09-01T07:00:30;3.90;;;0.85;;
16314;SDS011;8266;52.150;4.768;2022-09-01T07:02:57;1.73;;;0.60;;
16314;SDS011;8266;52.150;4.768;2022-09-01T07:05:24;2.70;;;0.80;;
16314;SDS011;8266;52.150;4.768;2022-09-01T07:07:52;1.27;;;0.88;;
16314;SDS011;8266;52.150;4.768;2022-09-01T07:10:20;0.80;;;0.80;;
16314;SDS011;8266;52.150;4.768;2022-09-01T07:12:49;1.65;;;0.93;;
16314;SDS011;8266;52.150;4.768;2022-09-01T07:15:17;1.50;;;0.98;;
16314;SDS011;8266;52.150;4.768;2022-09-01T07:17:45;1.55;;;0.93;;
16314;SDS011;8266;52.150;4.768;2022-09-01T07:20:14;1.13;;;0.80;;
16314;SDS011;8266;52.150;4.768;2022-09-01T07:22:41;2.38;;;0.90;;
16314;SDS011;8266;52.150;4.768;2022-09-01T07:25:09;3.03;;;0.85;;
16314;SDS011;8266;52.150;4.768;2022-09-01T07:27:36;2.33;;;1.10;;
16314;SDS011;8266;52.150;4.768;2022-09-01T07:30:06;2.70;;;1.08;;
16314;SDS011;8266;52.150;4.768;2022-09-01T07:32:36;0.80;;;0.68;;
16314;SDS011;8266;52.150;4.768;2022-09-01T07:35:07;1.48;;;0.95;;
16314;SDS011;8266;52.150;4.768;2022-09-01T07:37:35;1.83;;;0.80;;
16314;SDS011;8266;52.150;4.768;2022-09-01T07:40:03;1.40;;;0.80;;
16314;SDS011;8266;52.150;4.768;2022-09-01T07:42:32;1.70;;;0.90;;
16314;SDS011;8266;52.150;4.768;2022-09-01T07:44:59;1.10;;;0.88;;
16314;SDS011;8266;52.150;4.768;2022-09-01T07:47:32;2.55;;;0.98;;
16314;SDS011;8266;52.150;4.768;2022-09-01T07:50:01;3.28;;;0.98;;
16314;SDS011;8266;52.150;4.768;2022-09-01T07:52:32;0.70;;;0.65;;
16314;SDS011;8266;52.150;4.768;2022-09-01T07:55:00;2.38;;;0.65;;
16314;SDS011;8266;52.150;4.768;2022-09-01T07:57:27;1.70;;;0.65;;
16314;SDS011;8266;52.150;4.768;2022-09-01T07:59:56;1.15;;;0.63;;
16314;SDS011;8266;52.150;4.768;2022-09-01T08:02:23;1.38;;;0.90;;
16314;SDS011;8266;52.150;4.768;2022-09-01T08:04:53;0.73;;;0.57;;
16314;SDS011;8266;52.150;4.768;2022-09-01T08:07:20;2.70;;;0.75;;
16314;SDS011;8266;52.150;4.768;2022-09-01T08:09:47;1.65;;;0.70;;
16314;SDS011;8266;52.150;4.768;2022-09-01T08:12:14;1.35;;;0.70;;
16314;SDS011;8266;52.150;4.768;2022-09-01T08:14:41;2.35;;;0.70;;
16314;SDS011;8266;52.150;4.768;2022-09-01T08:17:09;2.45;;;1.00;;
16314;SDS011;8266;52.150;4.768;2022-09-01T08:19:36;2.92;;;0.75;;
16314;SDS011;8266;52.150;4.768;2022-09-01T08:22:05;1.85;;;1.02;;
16314;SDS011;8266;52.150;4.768;2022-09-01T08:24:32;1.20;;;0.80;;
16314;SDS011;8266;52.150;4.768;2022-09-01T08:26:59;2.00;;;0.80;;
16314;SDS011;8266;52.150;4.768;2022-09-01T08:29:26;1.48;;;0.77;;
16314;SDS011;8266;52.150;4.768;2022-09-01T08:31:53;1.00;;;0.85;;
16314;SDS011;8266;52.150;4.768;2022-09-01T08:34:23;1.17;;;0.90;;
16314;SDS011;8266;52.150;4.768;2022-09-01T08:36:50;2.08;;;1.00;;
16314;SDS011;8266;52.150;4.768;2022-09-01T08:39:18;1.67;;;0.77;;
16314;SDS011;8266;52.150;4.768;2022-09-01T08:41:46;1.92;;;0.80;;
16314;SDS011;8266;52.150;4.768;2022-09-01T08:44:25;3.10;;;0.68;;
16314;SDS011;8266;52.150;4.768;2022-09-01T08:47:00;0.52;;;0.52;;
16314;SDS011;8266;52.150;4.768;2022-09-01T08:49:32;2.22;;;0.63;;
16314;SDS011;8266;52.150;4.768;2022-09-01T08:52:05;2.05;;;0.85;;
16314;SDS011;8266;52.150;4.768;2022-09-01T08:54:41;1.45;;;0.90;;
16314;SDS011;8266;52.150;4.768;2022-09-01T08:57:13;4.45;;;1.20;;
16314;SDS011;8266;52.150;4.768;2022-09-01T08:59:43;0.82;;;0.57;;
16314;SDS011;8266;52.150;4.768;2022-09-01T09:02:15;2.47;;;0.75;;
16314;SDS011;8266;52.150;4.768;2022-09-01T09:04:52;0.70;;;0.50;;
16314;SDS011;8266;52.150;4.768;2022-09-01T09:07:28;0.93;;;0.60;;
16314;SDS011;8266;52.150;4.768;2022-09-01T09:10:05;3.55;;;0.52;;
16314;SDS011;8266;52.150;4.768;2022-09-01T09:12:38;1.80;;;0.70;;
16314;SDS011;8266;52.150;4.768;2022-09-01T09:15:21;2.10;;;0.50;;
16314;SDS011;8266;52.150;4.768;2022-09-01T09:18:05;1.42;;;0.88;;
16314;SDS011;8266;52.150;4.768;2022-09-01T09:20:38;1.73;;;0.60;;
16314;SDS011;8266;52.150;4.768;2022-09-01T09:23:10;1.17;;;0.70;;
16314;SDS011;8266;52.150;4.768;2022-09-01T09:25:45;1.75;;;0.55;;
16314;SDS011;8266;52.150;4.768;2022-09-01T09:28:12;1.95;;;0.43;;
16314;SDS011;8266;52.150;4.768;2022-09-01T09:30:39;1.45;;;0.50;;
16314;SDS011;8266;52.150;4.768;2022-09-01T09:33:06;3.40;;;0.60;;
16314;SDS011;8266;52.150;4.768;2022-09-01T09:35:37;0.60;;;0.50;;
16314;SDS011;8266;52.150;4.768;2022-09-01T09:38:15;1.00;;;0.50;;
16314;SDS011;8266;52.150;4.768;2022-09-01T09:41:01;0.88;;;0.60;;
16314;SDS011;8266;52.150;4.768;2022-09-01T09:43:31;0.95;;;0.50;;
16314;SDS011;8266;52.150;4.768;2022-09-01T09:48:51;0.68;;;0.57;;
16314;SDS011;8266;52.150;4.768;2022-09-01T09:51:36;1.75;;;0.43;;
16314;SDS011;8266;52.150;4.768;2022-09-01T09:54:17;2.13;;;0.57;;
16314;SDS011;8266;52.150;4.768;2022-09-01T09:57:00;2.63;;;0.60;;
16314;SDS011;8266;52.150;4.768;2022-09-01T09:59:31;1.40;;;0.65;;
16314;SDS011;8266;52.150;4.768;2022-09-01T10:02:12;2.13;;;0.65;;
16314;SDS011;8266;52.150;4.768;2022-09-01T10:04:50;0.88;;;0.50;;
16314;SDS011;8266;52.150;4.768;2022-09-01T10:07:29;3.78;;;0.60;;
16314;SDS011;8266;52.150;4.768;2022-09-01T10:09:59;0.73;;;0.43;;
16314;SDS011;8266;52.150;4.768;2022-09-01T10:12:30;0.77;;;0.60;;
16314;SDS011;8266;52.150;4.768;2022-09-01T10:14:59;1.27;;;0.68;;
16314;SDS011;8266;52.150;4.768;2022-09-01T10:17:30;1.27;;;0.70;;
16314;SDS011;8266;52.150;4.768;2022-09-01T10:20:02;3.15;;;0.70;;
16314;SDS011;8266;52.150;4.768;2022-09-01T10:22:33;1.63;;;0.60;;
16314;SDS011;8266;52.150;4.768;2022-09-01T10:25:03;0.80;;;0.40;;
16314;SDS011;8266;52.150;4.768;2022-09-01T10:27:34;0.40;;;0.40;;
16314;SDS011;8266;52.150;4.768;2022-09-01T10:30:05;0.50;;;0.40;;
16314;SDS011;8266;52.150;4.768;2022-09-01T10:32:36;0.63;;;0.40;;
16314;SDS011;8266;52.150;4.768;2022-09-01T10:35:08;0.75;;;0.50;;
16314;SDS011;8266;52.150;4.768;2022-09-01T10:37:40;2.83;;;0.60;;
16314;SDS011;8266;52.150;4.768;2022-09-01T10:40:09;0.80;;;0.40;;
16314;SDS011;8266;52.150;4.768;2022-09-01T10:42:43;0.65;;;0.50;;
16314;SDS011;8266;52.150;4.768;2022-09-01T10:45:15;0.90;;;0.50;;
16314;SDS011;8266;52.150;4.768;2022-09-01T10:47:47;0.65;;;0.43;;
16314;SDS011;8266;52.150;4.768;2022-09-01T10:50:30;2.72;;;0.50;;
16314;SDS011;8266;52.150;4.768;2022-09-01T10:53:03;1.58;;;0.60;;
16314;SDS011;8266;52.150;4.768;2022-09-01T10:55:33;1.33;;;0.55;;
16314;SDS011;8266;52.150;4.768;2022-09-01T10:58:11;1.10;;;0.50;;
16314;SDS011;8266;52.150;4.768;2022-09-01T11:00:54;0.95;;;0.50;;
16314;SDS011;8266;52.150;4.768;2022-09-01T11:06:53;1.00;;;0.47;;
16314;SDS011;8266;52.150;4.768;2022-09-01T11:09:31;1.23;;;0.50;;
16314;SDS011;8266;52.150;4.768;2022-09-01T11:18:13;0.60;;;0.40;;
16314;SDS011;8266;52.150;4.768;2022-09-01T11:20:42;1.08;;;0.40;;
16314;SDS011;8266;52.150;4.768;2022-09-01T11:23:18;0.45;;;0.35;;
16314;SDS011;8266;52.150;4.768;2022-09-01T11:25:52;1.10;;;0.60;;
16314;SDS011;8266;52.150;4.768;2022-09-01T11:28:44;1.35;;;0.88;;
16314;SDS011;8266;52.150;4.768;2022-09-01T11:31:25;1.00;;;0.57;;
16314;SDS011;8266;52.150;4.768;2022-09-01T11:34:01;1.98;;;0.60;;
16314;SDS011;8266;52.150;4.768;2022-09-01T11:36:44;0.43;;;0.40;;
16314;SDS011;8266;52.150;4.768;2022-09-01T11:39:21;1.33;;;0.50;;
16314;SDS011;8266;52.150;4.768;2022-09-01T11:41:57;0.50;;;0.40;;
16314;SDS011;8266;52.150;4.768;2022-09-01T11:44:34;0.68;;;0.52;;
16314;SDS011;8266;52.150;4.768;2022-09-01T11:47:09;4.03;;;0.40;;
16314;SDS011;8266;52.150;4.768;2022-09-01T11:49:45;0.40;;;0.30;;
16314;SDS011;8266;52.150;4.768;2022-09-01T11:52:17;1.38;;;0.52;;
16314;SDS011;8266;52.150;4.768;2022-09-01T11:54:49;0.50;;;0.40;;
16314;SDS011;8266;52.150;4.768;2022-09-01T11:57:20;0.38;;;0.38;;
16314;SDS011;8266;52.150;4.768;2022-09-01T11:59:50;1.50;;;0.55;;
16314;SDS011;8266;52.150;4.768;2022-09-01T12:02:20;0.63;;;0.40;;
16314;SDS011;8266;52.150;4.768;2022-09-01T12:04:49;1.02;;;0.63;;
16314;SDS011;8266;52.150;4.768;2022-09-01T12:07:26;0.40;;;0.40;;
16314;SDS011;8266;52.150;4.768;2022-09-01T12:09:58;0.57;;;0.47;;
16314;SDS011;8266;52.150;4.768;2022-09-01T12:12:32;1.15;;;0.60;;
16314;SDS011;8266;52.150;4.768;2022-09-01T12:15:02;0.50;;;0.47;;
16314;SDS011;8266;52.150;4.768;2022-09-01T12:17:34;8.70;;;1.13;;
16314;SDS011;8266;52.150;4.768;2022-09-01T12:22:55;0.90;;;0.40;;
16314;SDS011;8266;52.150;4.768;2022-09-01T12:25:27;0.70;;;0.60;;
16314;SDS011;8266;52.150;4.768;2022-09-01T12:27:56;0.43;;;0.40;;
16314;SDS011;8266;52.150;4.768;2022-09-01T12:30:25;0.50;;;0.50;;
16314;SDS011;8266;52.150;4.768;2022-09-01T12:33:00;0.90;;;0.50;;
16314;SDS011;8266;52.150;4.768;2022-09-01T12:35:30;0.50;;;0.40;;
16314;SDS011;8266;52.150;4.768;2022-09-01T12:40:50;1.17;;;0.70;;
16314;SDS011;8266;52.150;4.768;2022-09-01T12:43:32;1.33;;;0.60;;
16314;SDS011;8266;52.150;4.768;2022-09-01T12:46:01;0.80;;;0.50;;
16314;SDS011;8266;52.150;4.768;2022-09-01T12:48:30;0.75;;;0.40;;
16314;SDS011;8266;52.150;4.768;2022-09-01T12:50:59;0.40;;;0.38;;
16314;SDS011;8266;52.150;4.768;2022-09-01T12:53:28;0.30;;;0.30;;
16314;SDS011;8266;52.150;4.768;2022-09-01T12:56:17;0.82;;;0.40;;
16314;SDS011;8266;52.150;4.768;2022-09-01T12:58:55;0.35;;;0.32;;
16314;SDS011;8266;52.150;4.768;2022-09-01T13:01:34;0.52;;;0.50;;
16314;SDS011;8266;52.150;4.768;2022-09-01T13:07:00;3.80;;;0.30;;
16314;SDS011;8266;52.150;4.768;2022-09-01T13:09:28;0.63;;;0.35;;
16314;SDS011;8266;52.150;4.768;2022-09-01T13:12:08;1.20;;;0.70;;
16314;SDS011;8266;52.150;4.768;2022-09-01T13:14:42;0.30;;;0.30;;
16314;SDS011;8266;52.150;4.768;2022-09-01T13:17:09;1.83;;;0.50;;
16314;SDS011;8266;52.150;4.768;2022-09-01T13:19:38;2.20;;;0.40;;
16314;SDS011;8266;52.150;4.768;2022-09-01T13:22:05;0.70;;;0.43;;
16314;SDS011;8266;52.150;4.768;2022-09-01T13:24:32;0.68;;;0.47;;
16314;SDS011;8266;52.150;4.768;2022-09-01T13:26:59;0.50;;;0.40;;
16314;SDS011;8266;52.150;4.768;2022-09-01T13:29:26;0.40;;;0.40;;
16314;SDS011;8266;52.150;4.768;2022-09-01T13:31:53;1.30;;;0.50;;
16314;SDS011;8266;52.150;4.768;2022-09-01T13:34:20;1.35;;;0.40;;
16314;SDS011;8266;52.150;4.768;2022-09-01T13:36:48;0.95;;;0.45;;
16314;SDS011;8266;52.150;4.768;2022-09-01T13:39:15;1.23;;;0.50;;
16314;SDS011;8266;52.150;4.768;2022-09-01T13:41:43;0.93;;;0.40;;
16314;SDS011;8266;52.150;4.768;2022-09-01T13:44:11;0.43;;;0.30;;
16314;SDS011;8266;52.150;4.768;2022-09-01T13:46:38;0.50;;;0.50;;
16314;SDS011;8266;52.150;4.768;2022-09-01T13:49:05;0.82;;;0.30;;
16314;SDS011;8266;52.150;4.768;2022-09-01T13:51:32;1.50;;;0.30;;
16314;SDS011;8266;52.150;4.768;2022-09-01T13:54:02;0.40;;;0.40;;
16314;SDS011;8266;52.150;4.768;2022-09-01T13:56:29;1.25;;;0.40;;
16314;SDS011;8266;52.150;4.768;2022-09-01T13:58:56;0.85;;;0.40;;
16314;SDS011;8266;52.150;4.768;2022-09-01T14:01:23;3.05;;;0.47;;
16314;SDS011;8266;52.150;4.768;2022-09-01T14:03:50;0.50;;;0.40;;
16314;SDS011;8266;52.150;4.768;2022-09-01T14:06:17;1.13;;;0.52;;
16314;SDS011;8266;52.150;4.768;2022-09-01T14:08:45;0.43;;;0.32;;
16314;SDS011;8266;52.150;4.768;2022-09-01T14:11:16;0.45;;;0.30;;
16314;SDS011;8266;52.150;4.768;2022-09-01T14:13:44;0.50;;;0.40;;
16314;SDS011;8266;52.150;4.768;2022-09-01T14:16:12;2.20;;;0.38;;
16314;SDS011;8266;52.150;4.768;2022-09-01T14:18:39;1.23;;;0.30;;
16314;SDS011;8266;52.150;4.768;2022-09-01T14:21:09;0.60;;;0.30;;
16314;SDS011;8266;52.150;4.768;2022-09-01T14:23:38;2.00;;;0.70;;
16314;SDS011;8266;52.150;4.768;2022-09-01T14:26:07;1.23;;;0.43;;
16314;SDS011;8266;52.150;4.768;2022-09-01T14:28:37;1.10;;;0.50;;
16314;SDS011;8266;52.150;4.768;2022-09-01T14:31:07;0.63;;;0.50;;
16314;SDS011;8266;52.150;4.768;2022-09-01T14:33:34;0.52;;;0.32;;
16314;SDS011;8266;52.150;4.768;2022-09-01T14:36:02;0.40;;;0.38;;
16314;SDS011;8266;52.150;4.768;2022-09-01T14:38:31;2.00;;;0.50;;
16314;SDS011;8266;52.150;4.768;2022-09-01T14:40:59;0.75;;;0.35;;
16314;SDS011;8266;52.150;4.768;2022-09-01T14:43:26;0.40;;;0.30;;
16314;SDS011;8266;52.150;4.768;2022-09-01T14:46:04;0.35;;;0.32;;
16314;SDS011;8266;52.150;4.768;2022-09-01T14:48:34;1.17;;;0.40;;
16314;SDS011;8266;52.150;4.768;2022-09-01T14:51:02;0.22;;;0.22;;
16314;SDS011;8266;52.150;4.768;2022-09-01T14:53:30;1.65;;;0.45;;
16314;SDS011;8266;52.150;4.768;2022-09-01T14:55:57;0.30;;;0.30;;
16314;SDS011;8266;52.150;4.768;2022-09-01T14:58:26;1.48;;;0.47;;
16314;SDS011;8266;52.150;4.768;2022-09-01T15:00:54;1.40;;;0.45;;
16314;SDS011;8266;52.150;4.768;2022-09-01T15:03:23;1.77;;;0.40;;
16314;SDS011;8266;52.150;4.768;2022-09-01T15:05:51;1.33;;;0.30;;
16314;SDS011;8266;52.150;4.768;2022-09-01T15:08:18;0.73;;;0.50;;
16314;SDS011;8266;52.150;4.768;2022-09-01T15:10:47;0.73;;;0.43;;
16314;SDS011;8266;52.150;4.768;2022-09-01T15:13:14;0.68;;;0.40;;
16314;SDS011;8266;52.150;4.768;2022-09-01T15:15:41;2.75;;;0.40;;
16314;SDS011;8266;52.150;4.768;2022-09-01T15:18:08;5.32;;;0.55;;
16314;SDS011;8266;52.150;4.768;2022-09-01T15:20:39;1.10;;;0.50;;
16314;SDS011;8266;52.150;4.768;2022-09-01T15:23:15;1.15;;;0.50;;
16314;SDS011;8266;52.150;4.768;2022-09-01T15:25:43;1.90;;;0.52;;
16314;SDS011;8266;52.150;4.768;2022-09-01T15:28:11;1.05;;;0.40;;
16314;SDS011;8266;52.150;4.768;2022-09-01T15:30:39;2.05;;;0.50;;
16314;SDS011;8266;52.150;4.768;2022-09-01T15:33:09;1.38;;;0.50;;
16314;SDS011;8266;52.150;4.768;2022-09-01T15:35:36;0.65;;;0.43;;
16314;SDS011;8266;52.150;4.768;2022-09-01T15:38:05;0.93;;;0.45;;
16314;SDS011;8266;52.150;4.768;2022-09-01T15:40:32;0.88;;;0.55;;